sensor_id;sensor_type;location;lat;lon;timestamp;P1;durP1;ratioP1;P2;durP2;ratioP2
27728;SDS011;15126;42.186;24.340;2023-06-22T00:00:47;20.20;;;18.37;;
27728;SDS011;15126;42.186;24.340;2023-06-22T00:03:15;18.93;;;17.30;;
27728;SDS011;15126;42.186;24.340;2023-06-22T00:05:43;19.33;;;17.63;;
27728;SDS011;15126;42.186;24.340;2023-06-22T00:08:10;18.83;;;17.13;;
27728;SDS011;15126;42.186;24.340;2023-06-22T00:10:37;18.67;;;17.13;;
27728;SDS011;15126;42.186;24.340;2023-06-22T00:13:04;21.20;;;18.70;;
27728;SDS011;15126;42.186;24.340;2023-06-22T00:15:31;20.83;;;18.83;;
27728;SDS011;15126;42.186;24.340;2023-06-22T00:17:58;19.23;;;17.30;;
27728;SDS011;15126;42.186;24.340;2023-06-22T00:20:25;19.67;;;18.07;;
27728;SDS011;15126;42.186;24.340;2023-06-22T00:22:59;19.90;;;17.87;;
27728;SDS011;15126;42.186;24.340;2023-06-22T00:25:26;19.70;;;18.20;;
27728;SDS011;15126;42.186;24.340;2023-06-22T00:27:53;19.60;;;17.77;;
27728;SDS011;15126;42.186;24.340;2023-06-22T00:30:20;21.43;;;19.57;;
27728;SDS011;15126;42.186;24.340;2023-06-22T00:32:46;21.23;;;19.50;;
27728;SDS011;15126;42.186;24.340;2023-06-22T00:35:13;20.07;;;18.37;;
27728;SDS011;15126;42.186;24.340;2023-06-22T00:37:40;20.70;;;18.97;;
27728;SDS011;15126;42.186;24.340;2023-06-22T00:40:09;21.53;;;19.83;;
27728;SDS011;15126;42.186;24.340;2023-06-22T00:42:38;21.20;;;19.10;;
27728;SDS011;15126;42.186;24.340;2023-06-22T00:45:05;20.93;;;19.23;;
27728;SDS011;15126;42.186;24.340;2023-06-22T00:47:33;21.20;;;19.30;;
27728;SDS011;15126;42.186;24.340;2023-06-22T00:50:02;22.00;;;19.77;;
27728;SDS011;15126;42.186;24.340;2023-06-22T00:52:32;20.60;;;18.63;;
27728;SDS011;15126;42.186;24.340;2023-06-22T00:55:00;19.40;;;17.57;;
27728;SDS011;15126;42.186;24.340;2023-06-22T00:57:33;19.87;;;17.97;;
27728;SDS011;15126;42.186;24.340;2023-06-22T01:00:02;21.43;;;19.60;;
27728;SDS011;15126;42.186;24.340;2023-06-22T01:02:33;21.17;;;19.47;;
27728;SDS011;15126;42.186;24.340;2023-06-22T01:05:01;20.53;;;18.77;;
27728;SDS011;15126;42.186;24.340;2023-06-22T01:07:30;21.20;;;19.37;;
27728;SDS011;15126;42.186;24.340;2023-06-22T01:10:02;20.60;;;18.80;;
27728;SDS011;15126;42.186;24.340;2023-06-22T01:12:37;20.47;;;18.70;;
27728;SDS011;15126;42.186;24.340;2023-06-22T01:15:09;19.83;;;17.83;;
27728;SDS011;15126;42.186;24.340;2023-06-22T01:17:40;18.57;;;16.87;;
27728;SDS011;15126;42.186;24.340;2023-06-22T01:20:09;18.10;;;16.70;;
27728;SDS011;15126;42.186;24.340;2023-06-22T01:22:41;17.00;;;15.40;;
27728;SDS011;15126;42.186;24.340;2023-06-22T01:25:19;16.57;;;15.07;;
27728;SDS011;15126;42.186;24.340;2023-06-22T01:27:52;17.40;;;16.00;;
27728;SDS011;15126;42.186;24.340;2023-06-22T01:30:27;18.13;;;16.30;;
27728;SDS011;15126;42.186;24.340;2023-06-22T01:32:56;17.43;;;16.03;;
27728;SDS011;15126;42.186;24.340;2023-06-22T01:35:24;16.20;;;14.93;;
27728;SDS011;15126;42.186;24.340;2023-06-22T01:37:51;16.43;;;15.17;;
27728;SDS011;15126;42.186;24.340;2023-06-22T01:40:18;17.70;;;16.27;;
27728;SDS011;15126;42.186;24.340;2023-06-22T01:42:46;16.10;;;13.87;;
27728;SDS011;15126;42.186;24.340;2023-06-22T01:45:14;16.77;;;15.13;;
27728;SDS011;15126;42.186;24.340;2023-06-22T01:47:43;15.60;;;14.40;;
27728;SDS011;15126;42.186;24.340;2023-06-22T01:50:11;15.90;;;14.53;;
27728;SDS011;15126;42.186;24.340;2023-06-22T01:52:38;16.37;;;15.07;;
27728;SDS011;15126;42.186;24.340;2023-06-22T01:55:05;17.00;;;15.53;;
27728;SDS011;15126;42.186;24.340;2023-06-22T01:57:33;17.37;;;15.70;;
27728;SDS011;15126;42.186;24.340;2023-06-22T02:00:00;16.37;;;14.97;;
27728;SDS011;15126;42.186;24.340;2023-06-22T02:02:30;15.83;;;14.53;;
27728;SDS011;15126;42.186;24.340;2023-06-22T02:05:05;18.30;;;16.63;;
27728;SDS011;15126;42.186;24.340;2023-06-22T02:07:36;17.37;;;15.93;;
27728;SDS011;15126;42.186;24.340;2023-06-22T02:10:08;18.23;;;16.53;;
27728;SDS011;15126;42.186;24.340;2023-06-22T02:12:38;18.53;;;17.13;;
27728;SDS011;15126;42.186;24.340;2023-06-22T02:15:08;20.00;;;18.13;;
27728;SDS011;15126;42.186;24.340;2023-06-22T02:17:40;20.80;;;18.87;;
27728;SDS011;15126;42.186;24.340;2023-06-22T02:20:13;20.73;;;18.93;;
27728;SDS011;15126;42.186;24.340;2023-06-22T02:22:40;20.93;;;18.93;;
27728;SDS011;15126;42.186;24.340;2023-06-22T02:25:07;20.83;;;18.87;;
27728;SDS011;15126;42.186;24.340;2023-06-22T02:27:34;19.90;;;18.27;;
27728;SDS011;15126;42.186;24.340;2023-06-22T02:30:01;20.60;;;18.70;;
27728;SDS011;15126;42.186;24.340;2023-06-22T02:32:29;21.07;;;19.17;;
27728;SDS011;15126;42.186;24.340;2023-06-22T02:34:55;21.07;;;19.20;;
27728;SDS011;15126;42.186;24.340;2023-06-22T02:37:23;20.70;;;19.00;;
27728;SDS011;15126;42.186;24.340;2023-06-22T02:39:54;22.80;;;20.77;;
27728;SDS011;15126;42.186;24.340;2023-06-22T02:42:21;21.23;;;19.40;;
27728;SDS011;15126;42.186;24.340;2023-06-22T02:44:48;22.07;;;20.07;;
27728;SDS011;15126;42.186;24.340;2023-06-22T02:47:15;21.13;;;19.33;;
27728;SDS011;15126;42.186;24.340;2023-06-22T02:49:42;22.10;;;19.20;;
27728;SDS011;15126;42.186;24.340;2023-06-22T02:52:10;21.30;;;19.30;;
27728;SDS011;15126;42.186;24.340;2023-06-22T02:54:38;19.33;;;17.57;;
27728;SDS011;15126;42.186;24.340;2023-06-22T02:57:05;20.50;;;18.80;;
27728;SDS011;15126;42.186;24.340;2023-06-22T02:59:31;19.43;;;17.50;;
27728;SDS011;15126;42.186;24.340;2023-06-22T03:01:58;19.30;;;17.77;;
27728;SDS011;15126;42.186;24.340;2023-06-22T03:04:25;18.83;;;17.43;;
27728;SDS011;15126;42.186;24.340;2023-06-22T03:06:52;19.30;;;17.80;;
27728;SDS011;15126;42.186;24.340;2023-06-22T03:09:19;18.93;;;17.13;;
27728;SDS011;15126;42.186;24.340;2023-06-22T03:11:48;18.10;;;16.43;;
27728;SDS011;15126;42.186;24.340;2023-06-22T03:14:14;19.30;;;17.57;;
27728;SDS011;15126;42.186;24.340;2023-06-22T03:16:41;17.70;;;15.87;;
27728;SDS011;15126;42.186;24.340;2023-06-22T03:19:08;23.00;;;17.33;;
27728;SDS011;15126;42.186;24.340;2023-06-22T03:21:35;18.60;;;17.00;;
27728;SDS011;15126;42.186;24.340;2023-06-22T03:24:03;19.67;;;18.00;;
27728;SDS011;15126;42.186;24.340;2023-06-22T03:26:30;20.53;;;18.77;;
27728;SDS011;15126;42.186;24.340;2023-06-22T03:28:58;22.20;;;19.77;;
27728;SDS011;15126;42.186;24.340;2023-06-22T03:31:25;21.83;;;20.10;;
27728;SDS011;15126;42.186;24.340;2023-06-22T03:33:52;20.50;;;18.63;;
27728;SDS011;15126;42.186;24.340;2023-06-22T03:36:19;22.30;;;18.53;;
27728;SDS011;15126;42.186;24.340;2023-06-22T03:38:47;18.37;;;16.60;;
27728;SDS011;15126;42.186;24.340;2023-06-22T03:41:15;19.67;;;17.87;;
27728;SDS011;15126;42.186;24.340;2023-06-22T03:43:42;21.30;;;19.37;;
27728;SDS011;15126;42.186;24.340;2023-06-22T03:46:11;19.17;;;17.47;;
27728;SDS011;15126;42.186;24.340;2023-06-22T03:48:37;20.63;;;18.73;;
27728;SDS011;15126;42.186;24.340;2023-06-22T03:51:04;22.93;;;17.63;;
27728;SDS011;15126;42.186;24.340;2023-06-22T03:53:31;20.33;;;18.43;;
27728;SDS011;15126;42.186;24.340;2023-06-22T03:55:58;20.07;;;17.93;;
27728;SDS011;15126;42.186;24.340;2023-06-22T03:58:25;20.90;;;18.97;;
27728;SDS011;15126;42.186;24.340;2023-06-22T04:00:52;21.47;;;19.57;;
27728;SDS011;15126;42.186;24.340;2023-06-22T04:03:21;22.50;;;20.47;;
27728;SDS011;15126;42.186;24.340;2023-06-22T04:05:47;21.83;;;19.77;;
27728;SDS011;15126;42.186;24.340;2023-06-22T04:08:14;20.43;;;18.37;;
27728;SDS011;15126;42.186;24.340;2023-06-22T04:10:41;21.10;;;19.20;;
27728;SDS011;15126;42.186;24.340;2023-06-22T04:13:08;20.70;;;19.00;;
27728;SDS011;15126;42.186;24.340;2023-06-22T04:15:35;19.53;;;17.97;;
27728;SDS011;15126;42.186;24.340;2023-06-22T04:18:02;19.53;;;17.93;;
27728;SDS011;15126;42.186;24.340;2023-06-22T04:20:30;18.83;;;17.33;;
27728;SDS011;15126;42.186;24.340;2023-06-22T04:22:57;17.60;;;16.20;;
27728;SDS011;15126;42.186;24.340;2023-06-22T04:25:24;19.43;;;17.67;;
27728;SDS011;15126;42.186;24.340;2023-06-22T04:27:51;19.27;;;17.23;;
27728;SDS011;15126;42.186;24.340;2023-06-22T04:30:18;16.53;;;15.13;;
27728;SDS011;15126;42.186;24.340;2023-06-22T04:32:44;16.90;;;15.63;;
27728;SDS011;15126;42.186;24.340;2023-06-22T04:35:22;15.07;;;13.77;;
27728;SDS011;15126;42.186;24.340;2023-06-22T04:37:50;15.43;;;14.23;;
27728;SDS011;15126;42.186;24.340;2023-06-22T04:40:20;15.53;;;14.10;;
27728;SDS011;15126;42.186;24.340;2023-06-22T04:42:47;15.30;;;13.87;;
27728;SDS011;15126;42.186;24.340;2023-06-22T04:45:18;17.03;;;15.53;;
27728;SDS011;15126;42.186;24.340;2023-06-22T04:47:45;20.58;;;14.50;;
27728;SDS011;15126;42.186;24.340;2023-06-22T04:50:12;14.70;;;13.37;;
27728;SDS011;15126;42.186;24.340;2023-06-22T04:52:39;15.20;;;13.90;;
27728;SDS011;15126;42.186;24.340;2023-06-22T04:55:07;17.17;;;15.57;;
27728;SDS011;15126;42.186;24.340;2023-06-22T04:57:34;16.70;;;15.20;;
27728;SDS011;15126;42.186;24.340;2023-06-22T05:00:04;22.57;;;14.87;;
27728;SDS011;15126;42.186;24.340;2023-06-22T05:02:37;16.83;;;15.40;;
27728;SDS011;15126;42.186;24.340;2023-06-22T05:05:04;16.13;;;14.73;;
27728;SDS011;15126;42.186;24.340;2023-06-22T05:07:32;17.00;;;15.40;;
27728;SDS011;15126;42.186;24.340;2023-06-22T05:09:59;16.93;;;15.33;;
27728;SDS011;15126;42.186;24.340;2023-06-22T05:12:29;16.33;;;14.63;;
27728;SDS011;15126;42.186;24.340;2023-06-22T05:14:56;16.40;;;14.90;;
27728;SDS011;15126;42.186;24.340;2023-06-22T05:17:23;16.73;;;14.90;;
27728;SDS011;15126;42.186;24.340;2023-06-22T05:19:50;14.70;;;13.43;;
27728;SDS011;15126;42.186;24.340;2023-06-22T05:22:17;16.70;;;14.17;;
27728;SDS011;15126;42.186;24.340;2023-06-22T05:24:44;15.53;;;13.93;;
27728;SDS011;15126;42.186;24.340;2023-06-22T05:27:11;15.33;;;13.90;;
27728;SDS011;15126;42.186;24.340;2023-06-22T05:29:39;15.30;;;14.10;;
27728;SDS011;15126;42.186;24.340;2023-06-22T05:32:07;15.57;;;14.17;;
27728;SDS011;15126;42.186;24.340;2023-06-22T05:34:34;15.87;;;14.57;;
27728;SDS011;15126;42.186;24.340;2023-06-22T05:37:01;15.13;;;13.77;;
27728;SDS011;15126;42.186;24.340;2023-06-22T05:39:28;15.93;;;14.47;;
27728;SDS011;15126;42.186;24.340;2023-06-22T05:41:55;17.53;;;14.37;;
27728;SDS011;15126;42.186;24.340;2023-06-22T05:44:22;16.33;;;14.67;;
27728;SDS011;15126;42.186;24.340;2023-06-22T05:46:50;15.63;;;14.23;;
27728;SDS011;15126;42.186;24.340;2023-06-22T05:49:16;16.37;;;13.97;;
27728;SDS011;15126;42.186;24.340;2023-06-22T05:51:43;14.40;;;13.17;;
27728;SDS011;15126;42.186;24.340;2023-06-22T05:54:10;14.70;;;13.50;;
27728;SDS011;15126;42.186;24.340;2023-06-22T05:56:38;16.07;;;14.63;;
27728;SDS011;15126;42.186;24.340;2023-06-22T05:59:05;14.07;;;12.97;;
27728;SDS011;15126;42.186;24.340;2023-06-22T06:01:32;14.83;;;13.33;;
27728;SDS011;15126;42.186;24.340;2023-06-22T06:04:02;14.80;;;13.43;;
27728;SDS011;15126;42.186;24.340;2023-06-22T06:06:30;11.95;;;10.95;;
27728;SDS011;15126;42.186;24.340;2023-06-22T06:08:56;13.57;;;12.30;;
27728;SDS011;15126;42.186;24.340;2023-06-22T06:11:24;13.02;;;11.73;;
27728;SDS011;15126;42.186;24.340;2023-06-22T06:13:51;11.57;;;10.77;;
27728;SDS011;15126;42.186;24.340;2023-06-22T06:16:18;11.57;;;10.57;;
27728;SDS011;15126;42.186;24.340;2023-06-22T06:18:45;11.85;;;10.57;;
27728;SDS011;15126;42.186;24.340;2023-06-22T06:21:15;12.73;;;11.55;;
27728;SDS011;15126;42.186;24.340;2023-06-22T06:23:41;11.63;;;10.77;;
27728;SDS011;15126;42.186;24.340;2023-06-22T06:26:08;11.88;;;10.88;;
27728;SDS011;15126;42.186;24.340;2023-06-22T06:28:35;13.52;;;12.32;;
27728;SDS011;15126;42.186;24.340;2023-06-22T06:31:02;13.20;;;12.23;;
27728;SDS011;15126;42.186;24.340;2023-06-22T06:33:32;14.18;;;12.95;;
27728;SDS011;15126;42.186;24.340;2023-06-22T06:35:58;13.55;;;12.52;;
27728;SDS011;15126;42.186;24.340;2023-06-22T06:38:28;14.00;;;12.82;;
27728;SDS011;15126;42.186;24.340;2023-06-22T06:40:55;13.35;;;12.30;;
27728;SDS011;15126;42.186;24.340;2023-06-22T06:43:22;13.38;;;12.07;;
27728;SDS011;15126;42.186;24.340;2023-06-22T06:45:49;14.30;;;12.82;;
27728;SDS011;15126;42.186;24.340;2023-06-22T06:48:16;13.80;;;12.52;;
27728;SDS011;15126;42.186;24.340;2023-06-22T06:50:43;13.73;;;12.70;;
27728;SDS011;15126;42.186;24.340;2023-06-22T06:53:10;13.75;;;12.57;;
27728;SDS011;15126;42.186;24.340;2023-06-22T06:55:38;12.38;;;11.35;;
27728;SDS011;15126;42.186;24.340;2023-06-22T06:58:05;13.27;;;12.27;;
27728;SDS011;15126;42.186;24.340;2023-06-22T07:00:34;16.75;;;10.90;;
27728;SDS011;15126;42.186;24.340;2023-06-22T07:03:02;12.82;;;11.65;;
27728;SDS011;15126;42.186;24.340;2023-06-22T07:05:28;11.25;;;10.18;;
27728;SDS011;15126;42.186;24.340;2023-06-22T07:07:55;11.77;;;10.75;;
27728;SDS011;15126;42.186;24.340;2023-06-22T07:10:22;10.45;;;9.55;;
27728;SDS011;15126;42.186;24.340;2023-06-22T07:12:50;10.48;;;9.68;;
27728;SDS011;15126;42.186;24.340;2023-06-22T07:15:17;10.88;;;9.75;;
27728;SDS011;15126;42.186;24.340;2023-06-22T07:17:44;10.57;;;9.82;;
27728;SDS011;15126;42.186;24.340;2023-06-22T07:20:11;11.57;;;10.48;;
27728;SDS011;15126;42.186;24.340;2023-06-22T07:22:38;9.60;;;8.88;;
27728;SDS011;15126;42.186;24.340;2023-06-22T07:25:06;10.00;;;9.20;;
27728;SDS011;15126;42.186;24.340;2023-06-22T07:27:36;11.10;;;10.02;;
27728;SDS011;15126;42.186;24.340;2023-06-22T07:30:07;10.32;;;9.50;;
27728;SDS011;15126;42.186;24.340;2023-06-22T07:32:34;10.02;;;9.25;;
27728;SDS011;15126;42.186;24.340;2023-06-22T07:35:01;17.88;;;10.27;;
27728;SDS011;15126;42.186;24.340;2023-06-22T07:37:29;10.68;;;9.85;;
27728;SDS011;15126;42.186;24.340;2023-06-22T07:39:56;10.13;;;9.32;;
27728;SDS011;15126;42.186;24.340;2023-06-22T07:42:24;10.15;;;9.13;;
27728;SDS011;15126;42.186;24.340;2023-06-22T07:44:50;10.23;;;9.23;;
27728;SDS011;15126;42.186;24.340;2023-06-22T07:47:19;10.65;;;9.57;;
27728;SDS011;15126;42.186;24.340;2023-06-22T07:49:50;10.55;;;9.55;;
27728;SDS011;15126;42.186;24.340;2023-06-22T07:52:16;10.40;;;8.82;;
27728;SDS011;15126;42.186;24.340;2023-06-22T07:54:43;9.77;;;8.68;;
27728;SDS011;15126;42.186;24.340;2023-06-22T07:57:10;8.90;;;8.05;;
27728;SDS011;15126;42.186;24.340;2023-06-22T07:59:37;11.07;;;9.95;;
27728;SDS011;15126;42.186;24.340;2023-06-22T08:02:04;12.48;;;10.05;;
27728;SDS011;15126;42.186;24.340;2023-06-22T08:04:32;9.95;;;9.13;;
27728;SDS011;15126;42.186;24.340;2023-06-22T08:07:00;10.82;;;10.02;;
27728;SDS011;15126;42.186;24.340;2023-06-22T08:09:27;9.18;;;8.57;;
27728;SDS011;15126;42.186;24.340;2023-06-22T08:11:54;10.18;;;9.35;;
27728;SDS011;15126;42.186;24.340;2023-06-22T08:14:21;10.93;;;8.82;;
27728;SDS011;15126;42.186;24.340;2023-06-22T08:16:48;9.98;;;9.25;;
27728;SDS011;15126;42.186;24.340;2023-06-22T08:19:15;9.45;;;8.68;;
27728;SDS011;15126;42.186;24.340;2023-06-22T08:21:43;9.95;;;8.98;;
27728;SDS011;15126;42.186;24.340;2023-06-22T08:24:10;9.00;;;8.38;;
27728;SDS011;15126;42.186;24.340;2023-06-22T08:26:38;10.00;;;9.20;;
27728;SDS011;15126;42.186;24.340;2023-06-22T08:29:04;9.07;;;8.48;;
27728;SDS011;15126;42.186;24.340;2023-06-22T08:31:31;12.13;;;9.32;;
27728;SDS011;15126;42.186;24.340;2023-06-22T08:33:59;9.80;;;8.93;;
27728;SDS011;15126;42.186;24.340;2023-06-22T08:36:26;9.77;;;9.00;;
27728;SDS011;15126;42.186;24.340;2023-06-22T08:38:56;9.40;;;8.60;;
27728;SDS011;15126;42.186;24.340;2023-06-22T08:41:26;9.27;;;8.52;;
27728;SDS011;15126;42.186;24.340;2023-06-22T08:43:53;8.95;;;8.35;;
27728;SDS011;15126;42.186;24.340;2023-06-22T08:46:20;8.68;;;7.97;;
27728;SDS011;15126;42.186;24.340;2023-06-22T08:48:55;8.90;;;8.30;;
27728;SDS011;15126;42.186;24.340;2023-06-22T08:51:22;10.65;;;8.75;;
27728;SDS011;15126;42.186;24.340;2023-06-22T08:53:48;7.90;;;7.20;;
27728;SDS011;15126;42.186;24.340;2023-06-22T08:56:17;8.18;;;7.47;;
27728;SDS011;15126;42.186;24.340;2023-06-22T08:58:44;9.63;;;7.32;;
27728;SDS011;15126;42.186;24.340;2023-06-22T09:01:10;7.80;;;7.30;;
27728;SDS011;15126;42.186;24.340;2023-06-22T09:03:37;8.55;;;7.43;;
27728;SDS011;15126;42.186;24.340;2023-06-22T09:06:04;8.68;;;7.97;;
27728;SDS011;15126;42.186;24.340;2023-06-22T09:08:31;7.13;;;6.53;;
27728;SDS011;15126;42.186;24.340;2023-06-22T09:10:58;7.07;;;6.57;;
27728;SDS011;15126;42.186;24.340;2023-06-22T09:13:27;6.53;;;6.13;;
27728;SDS011;15126;42.186;24.340;2023-06-22T09:15:56;9.75;;;7.88;;
27728;SDS011;15126;42.186;24.340;2023-06-22T09:18:23;7.38;;;6.75;;
27728;SDS011;15126;42.186;24.340;2023-06-22T09:20:50;8.55;;;7.85;;
27728;SDS011;15126;42.186;24.340;2023-06-22T09:23:17;9.38;;;6.75;;
27728;SDS011;15126;42.186;24.340;2023-06-22T09:25:44;7.22;;;6.68;;
27728;SDS011;15126;42.186;24.340;2023-06-22T09:28:12;7.03;;;6.53;;
27728;SDS011;15126;42.186;24.340;2023-06-22T09:30:42;7.63;;;7.03;;
27728;SDS011;15126;42.186;24.340;2023-06-22T09:33:09;6.88;;;6.25;;
27728;SDS011;15126;42.186;24.340;2023-06-22T09:35:36;6.85;;;6.35;;
27728;SDS011;15126;42.186;24.340;2023-06-22T09:38:03;7.40;;;6.80;;
27728;SDS011;15126;42.186;24.340;2023-06-22T09:40:30;7.20;;;6.70;;
27728;SDS011;15126;42.186;24.340;2023-06-22T09:42:58;8.52;;;7.93;;
27728;SDS011;15126;42.186;24.340;2023-06-22T09:45:27;8.00;;;7.50;;
27728;SDS011;15126;42.186;24.340;2023-06-22T09:47:55;8.80;;;8.13;;
27728;SDS011;15126;42.186;24.340;2023-06-22T09:50:22;8.02;;;7.53;;
27728;SDS011;15126;42.186;24.340;2023-06-22T09:52:49;8.52;;;7.78;;
27728;SDS011;15126;42.186;24.340;2023-06-22T09:55:19;7.80;;;7.10;;
27728;SDS011;15126;42.186;24.340;2023-06-22T09:57:46;8.68;;;7.88;;
27728;SDS011;15126;42.186;24.340;2023-06-22T10:00:13;9.68;;;8.82;;
27728;SDS011;15126;42.186;24.340;2023-06-22T10:02:41;9.23;;;8.52;;
27728;SDS011;15126;42.186;24.340;2023-06-22T10:05:10;9.07;;;8.27;;
27728;SDS011;15126;42.186;24.340;2023-06-22T10:07:37;9.48;;;8.63;;
27728;SDS011;15126;42.186;24.340;2023-06-22T10:10:07;10.63;;;8.57;;
27728;SDS011;15126;42.186;24.340;2023-06-22T10:12:34;9.63;;;8.65;;
27728;SDS011;15126;42.186;24.340;2023-06-22T10:15:01;9.32;;;8.55;;
27728;SDS011;15126;42.186;24.340;2023-06-22T10:17:30;9.45;;;8.75;;
27728;SDS011;15126;42.186;24.340;2023-06-22T10:19:56;10.50;;;9.25;;
27728;SDS011;15126;42.186;24.340;2023-06-22T10:22:25;10.43;;;9.40;;
27728;SDS011;15126;42.186;24.340;2023-06-22T10:24:51;10.10;;;9.25;;
27728;SDS011;15126;42.186;24.340;2023-06-22T10:27:18;9.32;;;8.38;;
27728;SDS011;15126;42.186;24.340;2023-06-22T10:29:45;10.02;;;9.32;;
27728;SDS011;15126;42.186;24.340;2023-06-22T10:32:12;9.95;;;8.98;;
27728;SDS011;15126;42.186;24.340;2023-06-22T10:34:38;9.73;;;9.02;;
27728;SDS011;15126;42.186;24.340;2023-06-22T10:37:05;10.85;;;10.05;;
27728;SDS011;15126;42.186;24.340;2023-06-22T10:39:33;9.80;;;8.85;;
27728;SDS011;15126;42.186;24.340;2023-06-22T10:42:00;8.77;;;8.18;;
27728;SDS011;15126;42.186;24.340;2023-06-22T10:44:27;9.63;;;8.82;;
27728;SDS011;15126;42.186;24.340;2023-06-22T10:46:54;9.25;;;8.57;;
27728;SDS011;15126;42.186;24.340;2023-06-22T10:49:20;9.27;;;8.60;;
27728;SDS011;15126;42.186;24.340;2023-06-22T10:51:47;9.73;;;8.98;;
27728;SDS011;15126;42.186;24.340;2023-06-22T10:54:14;10.60;;;8.95;;
27728;SDS011;15126;42.186;24.340;2023-06-22T10:56:44;9.30;;;8.70;;
27728;SDS011;15126;42.186;24.340;2023-06-22T10:59:11;9.48;;;8.77;;
27728;SDS011;15126;42.186;24.340;2023-06-22T11:01:38;9.82;;;9.10;;
27728;SDS011;15126;42.186;24.340;2023-06-22T11:04:04;9.32;;;8.63;;
27728;SDS011;15126;42.186;24.340;2023-06-22T11:06:31;10.30;;;9.23;;
27728;SDS011;15126;42.186;24.340;2023-06-22T11:08:58;10.93;;;9.65;;
27728;SDS011;15126;42.186;24.340;2023-06-22T11:11:25;9.77;;;8.80;;
27728;SDS011;15126;42.186;24.340;2023-06-22T11:13:53;9.57;;;8.90;;
27728;SDS011;15126;42.186;24.340;2023-06-22T11:16:20;10.27;;;9.57;;
27728;SDS011;15126;42.186;24.340;2023-06-22T11:18:47;9.80;;;8.93;;
27728;SDS011;15126;42.186;24.340;2023-06-22T11:21:13;10.05;;;9.20;;
27728;SDS011;15126;42.186;24.340;2023-06-22T11:23:41;10.00;;;9.23;;
27728;SDS011;15126;42.186;24.340;2023-06-22T11:26:08;10.18;;;9.50;;
27728;SDS011;15126;42.186;24.340;2023-06-22T11:28:35;10.23;;;9.43;;
27728;SDS011;15126;42.186;24.340;2023-06-22T11:31:03;10.43;;;9.60;;
27728;SDS011;15126;42.186;24.340;2023-06-22T11:33:32;10.98;;;10.18;;
27728;SDS011;15126;42.186;24.340;2023-06-22T11:35:58;10.32;;;9.52;;
27728;SDS011;15126;42.186;24.340;2023-06-22T11:38:25;13.05;;;10.68;;
27728;SDS011;15126;42.186;24.340;2023-06-22T11:40:52;10.75;;;9.70;;
27728;SDS011;15126;42.186;24.340;2023-06-22T11:43:19;13.57;;;9.88;;
27728;SDS011;15126;42.186;24.340;2023-06-22T11:45:46;10.82;;;9.63;;
27728;SDS011;15126;42.186;24.340;2023-06-22T11:48:14;11.27;;;10.27;;
27728;SDS011;15126;42.186;24.340;2023-06-22T11:50:41;11.23;;;10.15;;
27728;SDS011;15126;42.186;24.340;2023-06-22T11:53:07;11.10;;;10.27;;
27728;SDS011;15126;42.186;24.340;2023-06-22T11:55:34;10.70;;;10.00;;
27728;SDS011;15126;42.186;24.340;2023-06-22T11:58:01;10.98;;;10.27;;
27728;SDS011;15126;42.186;24.340;2023-06-22T12:00:30;11.30;;;10.57;;
27728;SDS011;15126;42.186;24.340;2023-06-22T12:02:56;11.60;;;10.35;;
27728;SDS011;15126;42.186;24.340;2023-06-22T12:05:25;10.95;;;10.05;;
27728;SDS011;15126;42.186;24.340;2023-06-22T12:07:52;11.27;;;10.48;;
27728;SDS011;15126;42.186;24.340;2023-06-22T12:10:19;11.45;;;10.18;;
27728;SDS011;15126;42.186;24.340;2023-06-22T12:12:46;11.75;;;10.85;;
27728;SDS011;15126;42.186;24.340;2023-06-22T12:15:15;11.43;;;10.60;;
27728;SDS011;15126;42.186;24.340;2023-06-22T12:17:42;10.80;;;9.98;;
27728;SDS011;15126;42.186;24.340;2023-06-22T12:20:09;12.02;;;10.85;;
27728;SDS011;15126;42.186;24.340;2023-06-22T12:22:38;13.30;;;11.95;;
27728;SDS011;15126;42.186;24.340;2023-06-22T12:25:05;13.45;;;12.07;;
27728;SDS011;15126;42.186;24.340;2023-06-22T12:27:32;17.25;;;13.38;;
27728;SDS011;15126;42.186;24.340;2023-06-22T12:29:59;14.55;;;13.35;;
27728;SDS011;15126;42.186;24.340;2023-06-22T12:32:26;16.55;;;14.80;;
27728;SDS011;15126;42.186;24.340;2023-06-22T12:34:53;18.17;;;15.43;;
27728;SDS011;15126;42.186;24.340;2023-06-22T12:37:20;16.33;;;14.52;;
27728;SDS011;15126;42.186;24.340;2023-06-22T12:39:48;18.48;;;15.07;;
27728;SDS011;15126;42.186;24.340;2023-06-22T12:42:15;15.30;;;13.80;;
27728;SDS011;15126;42.186;24.340;2023-06-22T12:44:42;16.17;;;14.18;;
27728;SDS011;15126;42.186;24.340;2023-06-22T12:47:09;13.35;;;12.05;;
27728;SDS011;15126;42.186;24.340;2023-06-22T12:49:36;12.60;;;11.50;;
27728;SDS011;15126;42.186;24.340;2023-06-22T12:52:08;13.75;;;12.55;;
27728;SDS011;15126;42.186;24.340;2023-06-22T12:54:35;13.45;;;12.25;;
27728;SDS011;15126;42.186;24.340;2023-06-22T12:57:04;13.02;;;11.95;;
27728;SDS011;15126;42.186;24.340;2023-06-22T12:59:31;12.75;;;11.75;;
27728;SDS011;15126;42.186;24.340;2023-06-22T13:01:58;11.85;;;10.93;;
27728;SDS011;15126;42.186;24.340;2023-06-22T13:04:25;11.75;;;10.80;;
27728;SDS011;15126;42.186;24.340;2023-06-22T13:06:54;11.52;;;10.63;;
27728;SDS011;15126;42.186;24.340;2023-06-22T13:09:21;11.80;;;10.68;;
27728;SDS011;15126;42.186;24.340;2023-06-22T13:11:48;11.45;;;10.45;;
27728;SDS011;15126;42.186;24.340;2023-06-22T13:14:16;9.50;;;8.80;;
27728;SDS011;15126;42.186;24.340;2023-06-22T13:16:43;11.63;;;10.75;;
27728;SDS011;15126;42.186;24.340;2023-06-22T13:19:10;12.20;;;11.23;;
27728;SDS011;15126;42.186;24.340;2023-06-22T13:21:37;11.95;;;11.05;;
27728;SDS011;15126;42.186;24.340;2023-06-22T13:24:04;13.13;;;11.85;;
27728;SDS011;15126;42.186;24.340;2023-06-22T13:26:32;11.75;;;10.65;;
27728;SDS011;15126;42.186;24.340;2023-06-22T13:28:59;12.88;;;11.38;;
27728;SDS011;15126;42.186;24.340;2023-06-22T13:31:27;12.13;;;11.13;;
27728;SDS011;15126;42.186;24.340;2023-06-22T13:33:54;11.77;;;10.75;;
27728;SDS011;15126;42.186;24.340;2023-06-22T13:36:21;12.80;;;11.57;;
27728;SDS011;15126;42.186;24.340;2023-06-22T13:38:48;11.57;;;10.52;;
27728;SDS011;15126;42.186;24.340;2023-06-22T13:41:15;11.13;;;10.23;;
27728;SDS011;15126;42.186;24.340;2023-06-22T13:43:42;11.85;;;11.00;;
27728;SDS011;15126;42.186;24.340;2023-06-22T13:46:08;11.77;;;10.77;;
27728;SDS011;15126;42.186;24.340;2023-06-22T13:48:37;13.20;;;12.02;;
27728;SDS011;15126;42.186;24.340;2023-06-22T13:51:03;12.10;;;10.88;;
27728;SDS011;15126;42.186;24.340;2023-06-22T13:53:31;12.95;;;11.38;;
27728;SDS011;15126;42.186;24.340;2023-06-22T13:55:58;12.63;;;11.30;;
27728;SDS011;15126;42.186;24.340;2023-06-22T13:58:25;12.52;;;11.50;;
27728;SDS011;15126;42.186;24.340;2023-06-22T14:00:52;13.15;;;12.00;;
27728;SDS011;15126;42.186;24.340;2023-06-22T14:03:18;14.02;;;12.63;;
27728;SDS011;15126;42.186;24.340;2023-06-22T14:05:47;14.13;;;12.88;;
27728;SDS011;15126;42.186;24.340;2023-06-22T14:08:13;15.43;;;13.82;;
27728;SDS011;15126;42.186;24.340;2023-06-22T14:10:40;14.18;;;12.95;;
27728;SDS011;15126;42.186;24.340;2023-06-22T14:13:07;15.00;;;13.75;;
27728;SDS011;15126;42.186;24.340;2023-06-22T14:15:33;14.40;;;13.30;;
27728;SDS011;15126;42.186;24.340;2023-06-22T14:18:00;16.23;;;13.43;;